Terminal Aerodrome Forecast
Issued by NWS

Home | Current Version | Previous Version | Text Only | Print | Product List | Glossary Off
Versions: 1 2 3 4 5 6 7 8 9 10 11 12 13 14 15 16 17 18

249
FTUS43 KICT 211904 AAA
TAFCNU
TAF AMD
KCNU 211904Z 2119/2218 18019G27KT P6SM SCT015 OVC050
     FM212300 19016G24KT P6SM -SHRA VCTS BKN030CB
      TEMPO 2200/2203 1SM +TSRA OVC015CB
     FM220300 35016G23KT P6SM -SHRA VCTS OVC030CB
     FM220800 33009KT P6SM SCT050 BKN150=

USA.gov is the U.S. government's official web portal to all federal, state and local government web resources and services.